createdAt,value
2023-03-19T00:03:01.059Z,6.53
2023-03-19T00:06:06.543Z,6.35
2023-03-19T00:09:11.316Z,6.57
2023-03-19T00:12:16.275Z,7.75
2023-03-19T00:15:20.854Z,6.32
2023-03-19T00:18:25.419Z,6.95
2023-03-19T00:21:31.275Z,7.53
2023-03-19T00:24:35.831Z,6.35
2023-03-19T00:27:40.414Z,6.68
2023-03-19T00:30:45.574Z,5.50
2023-03-19T00:33:50.521Z,5.95
2023-03-19T00:36:56.291Z,6.43
2023-03-19T00:40:01.131Z,5.90
2023-03-19T00:43:06.352Z,5.95
2023-03-19T00:46:13.080Z,6.43
2023-03-19T00:49:19.838Z,6.05
2023-03-19T00:52:24.443Z,6.30
2023-03-19T00:55:28.917Z,7.57
2023-03-19T00:58:38.732Z,6.15
2023-03-19T01:01:44.347Z,6.03
2023-03-19T01:04:49.401Z,6.30
2023-03-19T01:07:53.986Z,6.28
2023-03-19T01:11:08.908Z,7.07
2023-03-19T01:14:16.132Z,6.57
2023-03-19T01:17:20.808Z,6.20
2023-03-19T01:20:25.497Z,6.97
2023-03-19T01:23:30.717Z,7.45
2023-03-19T01:26:35.698Z,6.32
2023-03-19T01:29:52.794Z,6.28
2023-03-19T01:33:11.780Z,5.97
2023-03-19T01:36:36.642Z,6.43
2023-03-19T01:39:43.659Z,6.53
2023-03-19T01:43:15.067Z,7.10
2023-03-19T01:46:37.915Z,7.63
2023-03-19T01:50:00.750Z,8.65
2023-03-19T01:53:08.274Z,8.57
2023-03-19T01:56:32.333Z,7.95
2023-03-19T01:59:46.902Z,8.05
2023-03-19T02:03:10.035Z,7.85
2023-03-19T02:06:36.496Z,8.05
2023-03-19T02:09:41.996Z,8.65
2023-03-19T02:12:46.834Z,8.70
2023-03-19T02:15:52.043Z,7.72
2023-03-19T02:18:57.629Z,7.93
2023-03-19T02:22:03.458Z,7.90
2023-03-19T02:25:17.192Z,8.60
2023-03-19T02:28:24.215Z,8.60
2023-03-19T02:31:31.323Z,7.32
2023-03-19T02:34:38.738Z,7.78
2023-03-19T02:37:43.337Z,7.95
2023-03-19T02:40:59.783Z,8.35
2023-03-19T02:44:05.450Z,9.07
2023-03-19T02:47:10.290Z,8.70
2023-03-19T02:50:14.937Z,7.22
2023-03-19T02:53:19.586Z,7.05
2023-03-19T02:56:24.143Z,7.90
2023-03-19T02:59:28.615Z,7.70
2023-03-19T03:02:33.457Z,7.97
2023-03-19T03:05:38.119Z,8.85
2023-03-19T03:08:42.607Z,9.23
2023-03-19T03:11:47.140Z,8.57
2023-03-19T03:14:51.762Z,9.35
2023-03-19T03:17:56.730Z,8.52
2023-03-19T03:21:01.828Z,7.95
2023-03-19T03:24:06.724Z,7.43
2023-03-19T03:27:11.433Z,8.90
2023-03-19T03:30:16.184Z,7.57
2023-03-19T03:33:21.392Z,8.00
2023-03-19T03:36:27.427Z,7.35
2023-03-19T03:39:31.970Z,9.15
2023-03-19T03:42:37.483Z,8.57
2023-03-19T03:45:44.739Z,8.65
2023-03-19T03:48:51.227Z,7.93
2023-03-19T03:51:56.097Z,8.23
2023-03-19T03:55:01.150Z,8.23
2023-03-19T03:58:05.863Z,7.40
2023-03-19T04:01:18.407Z,7.40
2023-03-19T04:04:26.568Z,7.20
2023-03-19T04:07:32.028Z,8.32
2023-03-19T04:10:40.575Z,8.25
2023-03-19T04:13:46.853Z,7.68
2023-03-19T04:16:52.075Z,7.63
2023-03-19T04:19:57.139Z,7.47
2023-03-19T04:23:02.105Z,7.97
2023-03-19T04:26:07.432Z,8.13
2023-03-19T04:29:12.626Z,7.85
2023-03-19T04:32:17.700Z,8.15
2023-03-19T04:35:22.815Z,7.72
2023-03-19T04:38:27.680Z,7.55
2023-03-19T04:41:32.469Z,8.95
2023-03-19T04:45:06.878Z,8.00
2023-03-19T04:48:11.833Z,7.88
2023-03-19T04:51:16.802Z,8.13
2023-03-19T04:54:21.562Z,7.85
2023-03-19T04:57:26.073Z,8.05
2023-03-19T05:00:33.351Z,7.95
2023-03-19T05:03:38.180Z,7.55
2023-03-19T05:06:42.808Z,8.77
2023-03-19T05:09:47.668Z,8.30
2023-03-19T05:12:53.573Z,7.22
2023-03-19T05:15:58.350Z,8.88
2023-03-19T05:19:03.414Z,7.60
2023-03-19T05:22:09.795Z,7.45
2023-03-19T05:25:14.693Z,7.95
2023-03-19T05:28:20.550Z,7.60
2023-03-19T05:31:26.525Z,7.05
2023-03-19T05:34:33.078Z,6.47
2023-03-19T05:37:37.726Z,6.68
2023-03-19T05:40:42.393Z,7.00
2023-03-19T05:44:00.911Z,8.43
2023-03-19T05:47:25.736Z,7.70
2023-03-19T05:50:33.998Z,7.50
2023-03-19T05:53:51.078Z,8.57
2023-03-19T05:57:07.683Z,8.77
2023-03-19T06:00:34.024Z,8.85
2023-03-19T06:03:38.640Z,7.90
2023-03-19T06:06:46.108Z,8.48
2023-03-19T06:09:51.742Z,8.35
2023-03-19T06:12:56.460Z,8.43
2023-03-19T06:16:19.974Z,7.68
2023-03-19T06:19:32.239Z,7.50
2023-03-19T06:22:37.119Z,8.27
2023-03-19T06:25:42.511Z,7.93
2023-03-19T06:28:47.044Z,7.60
2023-03-19T06:31:52.371Z,7.30
2023-03-19T06:35:10.272Z,8.00
2023-03-19T06:38:15.126Z,8.07
2023-03-19T06:41:19.677Z,9.57
2023-03-19T06:44:27.451Z,8.60
2023-03-19T06:47:31.956Z,8.20
2023-03-19T06:50:36.507Z,8.27
2023-03-19T06:53:41.151Z,7.68
2023-03-19T06:56:46.327Z,7.10
2023-03-19T06:59:51.042Z,7.53
2023-03-19T07:02:55.708Z,6.78
2023-03-19T07:06:00.245Z,7.88
2023-03-19T07:09:05.094Z,6.85
2023-03-19T07:12:09.843Z,7.10
2023-03-19T07:15:14.431Z,6.80
2023-03-19T07:18:18.967Z,6.82
2023-03-19T07:21:23.850Z,7.20
2023-03-19T07:24:28.354Z,7.00
2023-03-19T07:27:33.046Z,7.05
2023-03-19T07:30:38.462Z,7.63
2023-03-19T07:33:43.032Z,5.85
2023-03-19T07:36:47.610Z,7.28
2023-03-19T07:39:52.208Z,7.15
2023-03-19T07:42:56.848Z,6.50
2023-03-19T07:46:01.896Z,7.05
2023-03-19T07:49:06.471Z,6.85
2023-03-19T07:52:11.251Z,6.28
2023-03-19T07:55:15.797Z,6.15
2023-03-19T07:58:21.197Z,6.82
2023-03-19T08:01:26.577Z,6.18
2023-03-19T08:04:31.682Z,6.60
2023-03-19T08:07:36.456Z,6.82
2023-03-19T08:10:42.473Z,6.20
2023-03-19T08:13:47.010Z,5.28
2023-03-19T08:16:51.727Z,5.47
2023-03-19T08:19:56.342Z,6.30
2023-03-19T08:23:01.168Z,6.00
2023-03-19T08:26:06.242Z,6.78
2023-03-19T08:29:10.926Z,5.90
2023-03-19T08:32:15.710Z,6.47
2023-03-19T08:35:20.306Z,6.18
2023-03-19T08:38:24.855Z,5.85
2023-03-19T08:41:32.474Z,6.45
2023-03-19T08:44:37.136Z,6.93
2023-03-19T08:47:43.031Z,6.07
2023-03-19T08:50:53.276Z,5.97
2023-03-19T08:53:58.053Z,6.20
2023-03-19T08:57:03.026Z,6.25
2023-03-19T09:00:08.178Z,5.60
2023-03-19T09:03:14.230Z,5.80
2023-03-19T09:06:18.830Z,6.15
2023-03-19T09:09:24.783Z,7.57
2023-03-19T09:12:29.347Z,6.70
2023-03-19T09:15:34.116Z,6.45
2023-03-19T09:18:38.848Z,6.95
2023-03-19T09:21:44.690Z,7.07
2023-03-19T09:24:49.291Z,6.43
2023-03-19T09:27:53.804Z,7.07
2023-03-19T09:30:58.553Z,7.88
2023-03-19T09:34:03.308Z,7.32
2023-03-19T09:37:08.653Z,8.32
2023-03-19T09:40:27.265Z,7.68
2023-03-19T09:43:50.544Z,8.32
2023-03-19T09:47:00.549Z,7.65
2023-03-19T09:50:17.368Z,7.20
2023-03-19T09:53:38.755Z,8.05
2023-03-19T09:56:43.254Z,8.10
2023-03-19T09:59:48.227Z,7.47
2023-03-19T10:03:14.737Z,6.68
2023-03-19T10:06:29.642Z,8.07
2023-03-19T10:09:49.137Z,8.23
2023-03-19T10:13:27.694Z,8.32
2023-03-19T10:16:34.288Z,7.47
2023-03-19T10:19:55.584Z,8.02
2023-03-19T10:23:26.347Z,7.88
2023-03-19T10:26:35.494Z,7.32
2023-03-19T10:29:41.275Z,7.60
2023-03-19T10:32:53.132Z,7.60
2023-03-19T10:36:04.032Z,7.55
2023-03-19T10:39:09.080Z,7.25
2023-03-19T10:42:13.613Z,8.07
2023-03-19T10:45:21.169Z,8.80
2023-03-19T10:48:28.336Z,8.73
2023-03-19T10:51:34.299Z,8.85
2023-03-19T10:54:40.547Z,7.68
2023-03-19T10:57:50.152Z,8.43
2023-03-19T11:01:09.626Z,9.30
2023-03-19T11:04:22.141Z,9.45
2023-03-19T11:07:27.710Z,9.70
2023-03-19T11:10:36.029Z,10.10
2023-03-19T11:13:40.871Z,10.05
2023-03-19T11:16:57.256Z,8.65
2023-03-19T11:20:18.790Z,10.45
2023-03-19T11:23:28.270Z,9.18
2023-03-19T11:26:32.828Z,11.27
2023-03-19T11:29:41.721Z,9.38
2023-03-19T11:33:09.262Z,10.45
2023-03-19T11:36:25.697Z,9.60
2023-03-19T11:39:55.280Z,10.40
2023-03-19T11:43:30.828Z,9.73
2023-03-19T11:47:26.377Z,10.25
2023-03-19T11:50:51.132Z,9.70
2023-03-19T11:54:22.246Z,9.75
2023-03-19T11:57:52.540Z,9.52
2023-03-19T12:01:00.881Z,9.68
2023-03-19T12:04:26.556Z,10.13
2023-03-19T12:07:48.802Z,10.40
2023-03-19T12:11:03.623Z,11.30
2023-03-19T12:14:31.783Z,9.82
2023-03-19T12:17:53.276Z,10.43
2023-03-19T12:21:00.647Z,10.10
2023-03-19T12:24:19.719Z,9.85
2023-03-19T12:27:45.693Z,10.63
2023-03-19T12:30:50.347Z,9.75
2023-03-19T12:34:24.268Z,9.75
2023-03-19T12:37:49.961Z,9.70
2023-03-19T12:41:24.753Z,9.93
2023-03-19T12:44:43.112Z,9.48
2023-03-19T12:47:49.095Z,9.40
2023-03-19T12:50:58.802Z,9.05
2023-03-19T12:54:12.769Z,11.00
2023-03-19T12:57:27.204Z,10.20
2023-03-19T13:00:44.919Z,10.35
2023-03-19T13:03:54.065Z,10.13
2023-03-19T13:07:08.448Z,11.15
2023-03-19T13:10:19.061Z,10.50
2023-03-19T13:13:42.440Z,10.65
2023-03-19T13:17:02.627Z,11.13
2023-03-19T13:20:28.796Z,9.65
2023-03-19T13:23:37.231Z,10.77
2023-03-19T13:26:42.799Z,10.52
2023-03-19T13:30:03.807Z,8.73
2023-03-19T13:33:22.789Z,10.02
2023-03-19T13:36:30.767Z,10.10
2023-03-19T13:39:36.681Z,9.70
2023-03-19T13:42:43.069Z,8.90
2023-03-19T13:45:52.941Z,8.65
2023-03-19T13:49:09.670Z,8.52
2023-03-19T13:52:14.095Z,8.98
2023-03-19T13:55:24.584Z,9.00
2023-03-19T13:58:48.778Z,8.82
2023-03-19T14:01:54.151Z,8.68
2023-03-19T14:05:17.077Z,9.40
2023-03-19T14:11:33.435Z,9.70
2023-03-19T14:15:00.020Z,8.23
2023-03-19T14:18:18.686Z,7.60
2023-03-19T14:21:24.234Z,8.25
2023-03-19T14:24:58.263Z,7.70
2023-03-19T14:28:10.329Z,7.22
2023-03-19T14:31:41.061Z,8.18
2023-03-19T14:34:48.255Z,7.20
2023-03-19T14:37:54.275Z,8.05
2023-03-19T14:41:00.919Z,6.80
2023-03-19T14:44:27.313Z,6.88
2023-03-19T14:47:35.084Z,6.43
2023-03-19T14:50:48.534Z,5.53
2023-03-19T14:54:06.744Z,5.65
2023-03-19T14:57:20.283Z,5.75
2023-03-19T15:00:24.850Z,5.63
2023-03-19T15:03:37.186Z,5.10
2023-03-19T15:06:44.716Z,5.78
2023-03-19T15:09:55.045Z,6.00
2023-03-19T15:13:36.527Z,6.07
2023-03-19T15:16:59.389Z,5.88
2023-03-19T15:20:17.218Z,4.95
2023-03-19T15:23:28.480Z,5.65
2023-03-19T15:26:37.381Z,5.57
2023-03-19T15:29:41.876Z,5.85
2023-03-19T15:32:56.422Z,6.57
2023-03-19T15:36:30.094Z,5.15
2023-03-19T15:39:36.247Z,4.68
2023-03-19T15:42:43.131Z,5.25
2023-03-19T15:45:51.767Z,5.10
2023-03-19T15:49:20.995Z,4.78
2023-03-19T15:52:26.392Z,4.20
2023-03-19T15:55:34.370Z,4.22
2023-03-19T15:58:40.266Z,4.05
2023-03-19T16:01:44.854Z,3.85
2023-03-19T16:05:20.514Z,4.78
2023-03-19T16:08:27.061Z,4.20
2023-03-19T16:11:41.583Z,3.30
2023-03-19T16:14:46.125Z,3.58
2023-03-19T16:17:50.777Z,3.38
2023-03-19T16:21:09.292Z,3.85
2023-03-19T16:24:37.366Z,3.33
2023-03-19T16:27:42.881Z,2.55
2023-03-19T16:30:48.685Z,3.63
2023-03-19T16:33:53.486Z,3.10
2023-03-19T16:36:58.402Z,3.30
2023-03-19T16:40:23.681Z,3.15
2023-03-19T16:43:36.799Z,2.50
2023-03-19T16:46:41.616Z,2.92
2023-03-19T16:49:47.884Z,3.05
2023-03-19T16:52:52.418Z,2.45
2023-03-19T16:55:58.535Z,2.63
2023-03-19T16:59:03.646Z,2.63
2023-03-19T17:02:16.868Z,3.08
2023-03-19T17:05:21.937Z,2.97
2023-03-19T17:08:26.518Z,3.10
2023-03-19T17:11:35.931Z,3.92
2023-03-19T17:14:40.964Z,3.60
2023-03-19T17:17:45.532Z,4.03
2023-03-19T17:21:01.473Z,4.43
2023-03-19T17:24:22.172Z,3.75
2023-03-19T17:27:27.725Z,3.15
2023-03-19T17:30:33.524Z,2.88
2023-03-19T17:33:38.199Z,3.25
2023-03-19T17:36:47.932Z,3.67
2023-03-19T17:39:55.541Z,3.83
2023-03-19T17:43:00.196Z,3.40
2023-03-19T17:46:05.140Z,3.22
2023-03-19T17:49:11.300Z,2.92
2023-03-19T17:52:17.600Z,3.63
2023-03-19T17:55:28.098Z,3.50
2023-03-19T17:58:32.694Z,3.67
2023-03-19T18:01:38.339Z,3.42
2023-03-19T18:04:44.485Z,3.67
2023-03-19T18:07:50.968Z,3.97
2023-03-19T18:10:55.580Z,2.78
2023-03-19T18:14:00.216Z,3.15
2023-03-19T18:17:04.995Z,3.15
2023-03-19T18:20:16.949Z,3.13
2023-03-19T18:23:23.900Z,3.63
2023-03-19T18:26:28.432Z,9.68
2023-03-19T18:29:33.083Z,4.95
2023-03-19T18:32:40.790Z,3.90
2023-03-19T18:35:46.411Z,3.63
2023-03-19T18:38:51.517Z,3.60
2023-03-19T18:41:56.017Z,3.80
2023-03-19T18:45:02.272Z,3.22
2023-03-19T18:48:18.956Z,3.70
2023-03-19T18:51:24.317Z,4.35
2023-03-19T18:54:30.641Z,3.90
2023-03-19T18:57:37.662Z,4.38
2023-03-19T19:00:42.231Z,3.83
2023-03-19T19:03:47.742Z,4.68
2023-03-19T19:06:52.437Z,4.50
2023-03-19T19:09:57.009Z,4.70
2023-03-19T19:13:02.381Z,3.72
2023-03-19T19:16:07.320Z,4.40
2023-03-19T19:19:23.359Z,4.10
2023-03-19T19:22:29.661Z,4.00
2023-03-19T19:25:34.314Z,4.90
2023-03-19T19:28:41.438Z,5.47
2023-03-19T19:31:46.311Z,5.03
2023-03-19T19:34:51.819Z,5.15
2023-03-19T19:37:56.446Z,4.80
2023-03-19T19:41:01.037Z,4.90
2023-03-19T19:44:06.143Z,5.20
2023-03-19T19:47:17.697Z,5.30
2023-03-19T19:50:25.179Z,5.40
2023-03-19T19:53:31.783Z,5.78
2023-03-19T19:56:37.321Z,6.05
2023-03-19T19:59:41.885Z,7.80
2023-03-19T20:02:46.933Z,10.30
2023-03-19T20:05:52.353Z,8.88
2023-03-19T20:08:56.883Z,5.97
2023-03-19T20:12:06.028Z,5.35
2023-03-19T20:15:28.220Z,4.70
2023-03-19T20:18:35.386Z,4.03
2023-03-19T20:21:40.115Z,4.55
2023-03-19T20:24:45.557Z,4.30
2023-03-19T20:27:54.946Z,4.95
2023-03-19T20:31:01.490Z,5.10
2023-03-19T20:34:06.980Z,4.88
2023-03-19T20:37:11.546Z,5.25
2023-03-19T20:40:16.540Z,4.70
2023-03-19T20:43:35.366Z,4.93
2023-03-19T20:46:40.703Z,5.13
2023-03-19T20:49:45.739Z,5.00
2023-03-19T20:52:51.600Z,5.47
2023-03-19T20:55:57.206Z,4.78
2023-03-19T20:59:02.022Z,5.25
2023-03-19T21:02:24.344Z,5.40
2023-03-19T21:05:36.487Z,5.70
2023-03-19T21:08:43.462Z,4.45
2023-03-19T21:11:49.088Z,5.93
2023-03-19T21:14:53.564Z,5.55
2023-03-19T21:17:58.946Z,4.65
2023-03-19T21:21:03.548Z,5.32
2023-03-19T21:24:13.977Z,4.78
2023-03-19T21:27:27.950Z,5.47
2023-03-19T21:30:37.994Z,5.53
2023-03-19T21:33:43.314Z,5.43
2023-03-19T21:36:47.909Z,5.45
2023-03-19T21:39:52.432Z,6.00
2023-03-19T21:43:01.389Z,5.88
2023-03-19T21:46:22.883Z,6.00
2023-03-19T21:49:30.029Z,6.35
2023-03-19T21:52:49.580Z,6.13
2023-03-19T21:56:00.703Z,5.75
2023-03-19T21:59:14.075Z,5.75
2023-03-19T22:02:22.358Z,6.65
2023-03-19T22:05:28.978Z,5.72
2023-03-19T22:08:33.555Z,5.90
2023-03-19T22:11:39.705Z,5.90
2023-03-19T22:14:44.560Z,6.47
2023-03-19T22:17:49.986Z,6.05
2023-03-19T22:20:54.771Z,6.28
2023-03-19T22:23:59.309Z,5.82
2023-03-19T22:27:04.062Z,6.22
2023-03-19T22:30:34.024Z,6.57
2023-03-19T22:33:38.509Z,6.97
2023-03-19T22:36:43.700Z,6.55
2023-03-19T22:39:48.268Z,6.82
2023-03-19T22:42:53.164Z,6.90
2023-03-19T22:45:58.360Z,7.25
2023-03-19T22:49:12.681Z,7.18
2023-03-19T22:52:17.618Z,6.15
2023-03-19T22:55:22.863Z,7.07
2023-03-19T22:58:28.281Z,7.63
2023-03-19T23:01:41.969Z,6.35
2023-03-19T23:04:48.335Z,6.13
2023-03-19T23:07:53.469Z,6.82
2023-03-19T23:10:58.469Z,7.45
2023-03-19T23:14:03.463Z,7.22
2023-03-19T23:17:17.389Z,7.70
2023-03-19T23:20:22.008Z,7.32
2023-03-19T23:23:28.043Z,7.25
2023-03-19T23:26:34.928Z,7.80
2023-03-19T23:29:44.044Z,6.97
2023-03-19T23:32:49.626Z,7.38
2023-03-19T23:35:54.540Z,7.30
2023-03-19T23:38:59.345Z,7.28
2023-03-19T23:42:04.081Z,6.63
2023-03-19T23:45:23.221Z,7.95
2023-03-19T23:48:34.741Z,7.10
2023-03-19T23:51:39.348Z,7.03
2023-03-19T23:54:43.869Z,7.28
2023-03-19T23:57:49.183Z,7.63
